sensor_id;sensor_type;location;lat;lon;timestamp;temperature;humidity
27896;DHT22;15241;48.374;10.876;2023-03-03T00:03:51;3.60;99.90
27896;DHT22;15241;48.374;10.876;2023-03-03T00:08:58;3.70;99.90
27896;DHT22;15241;48.374;10.876;2023-03-03T00:13:58;3.60;99.90
27896;DHT22;15241;48.374;10.876;2023-03-03T00:19:00;3.60;99.90
27896;DHT22;15241;48.374;10.876;2023-03-03T00:29:33;3.50;99.90
27896;DHT22;15241;48.374;10.876;2023-03-03T00:34:34;3.40;99.90
27896;DHT22;15241;48.374;10.876;2023-03-03T00:39:36;3.20;99.90
27896;DHT22;15241;48.374;10.876;2023-03-03T00:44:43;3.30;99.90
27896;DHT22;15241;48.374;10.876;2023-03-03T00:49:42;3.30;99.90
27896;DHT22;15241;48.374;10.876;2023-03-03T00:54:41;3.40;99.90
27896;DHT22;15241;48.374;10.876;2023-03-03T00:59:40;3.40;99.90
27896;DHT22;15241;48.374;10.876;2023-03-03T01:04:41;3.40;99.90
27896;DHT22;15241;48.374;10.876;2023-03-03T01:09:42;3.30;99.90
27896;DHT22;15241;48.374;10.876;2023-03-03T01:14:43;3.40;99.90
27896;DHT22;15241;48.374;10.876;2023-03-03T01:19:41;3.40;99.90
27896;DHT22;15241;48.374;10.876;2023-03-03T01:24:41;3.20;99.90
27896;DHT22;15241;48.374;10.876;2023-03-03T01:29:39;3.00;99.90
27896;DHT22;15241;48.374;10.876;2023-03-03T01:34:38;3.10;99.90
27896;DHT22;15241;48.374;10.876;2023-03-03T01:44:45;3.00;99.90
27896;DHT22;15241;48.374;10.876;2023-03-03T01:49:51;3.10;99.90
27896;DHT22;15241;48.374;10.876;2023-03-03T01:54:50;3.00;99.90
27896;DHT22;15241;48.374;10.876;2023-03-03T01:59:50;3.10;99.90
27896;DHT22;15241;48.374;10.876;2023-03-03T02:04:50;3.20;99.90
27896;DHT22;15241;48.374;10.876;2023-03-03T02:09:53;3.20;99.90
27896;DHT22;15241;48.374;10.876;2023-03-03T02:14:52;3.10;99.90
27896;DHT22;15241;48.374;10.876;2023-03-03T02:19:56;3.10;99.90
27896;DHT22;15241;48.374;10.876;2023-03-03T02:24:55;3.00;99.90
27896;DHT22;15241;48.374;10.876;2023-03-03T02:29:55;3.10;99.90
27896;DHT22;15241;48.374;10.876;2023-03-03T02:34:54;3.20;99.90
27896;DHT22;15241;48.374;10.876;2023-03-03T02:39:53;3.20;99.90
27896;DHT22;15241;48.374;10.876;2023-03-03T02:44:52;3.20;99.90
27896;DHT22;15241;48.374;10.876;2023-03-03T02:49:51;3.30;99.90
27896;DHT22;15241;48.374;10.876;2023-03-03T02:54:50;3.30;99.90
27896;DHT22;15241;48.374;10.876;2023-03-03T02:59:49;3.20;99.90
27896;DHT22;15241;48.374;10.876;2023-03-03T03:04:48;3.20;99.90
27896;DHT22;15241;48.374;10.876;2023-03-03T03:09:47;3.20;99.90
27896;DHT22;15241;48.374;10.876;2023-03-03T03:14:46;3.20;99.90
27896;DHT22;15241;48.374;10.876;2023-03-03T03:19:45;3.10;99.90
27896;DHT22;15241;48.374;10.876;2023-03-03T03:24:44;3.10;99.90
27896;DHT22;15241;48.374;10.876;2023-03-03T03:29:43;3.20;99.90
27896;DHT22;15241;48.374;10.876;2023-03-03T03:34:42;3.20;99.90
27896;DHT22;15241;48.374;10.876;2023-03-03T03:39:41;3.40;99.90
27896;DHT22;15241;48.374;10.876;2023-03-03T03:44:40;3.40;99.90
27896;DHT22;15241;48.374;10.876;2023-03-03T03:49:40;3.50;99.90
27896;DHT22;15241;48.374;10.876;2023-03-03T03:54:39;3.50;99.90
27896;DHT22;15241;48.374;10.876;2023-03-03T03:59:39;3.50;99.90
27896;DHT22;15241;48.374;10.876;2023-03-03T04:04:38;3.70;99.90
27896;DHT22;15241;48.374;10.876;2023-03-03T04:09:37;3.70;99.90
27896;DHT22;15241;48.374;10.876;2023-03-03T04:14:36;3.80;99.90
27896;DHT22;15241;48.374;10.876;2023-03-03T04:19:35;3.90;99.90
27896;DHT22;15241;48.374;10.876;2023-03-03T04:24:34;4.00;99.90
27896;DHT22;15241;48.374;10.876;2023-03-03T04:29:34;4.00;99.90
27896;DHT22;15241;48.374;10.876;2023-03-03T04:34:33;4.00;99.90
27896;DHT22;15241;48.374;10.876;2023-03-03T04:39:32;4.10;99.90
27896;DHT22;15241;48.374;10.876;2023-03-03T04:44:32;4.20;99.90
27896;DHT22;15241;48.374;10.876;2023-03-03T04:49:33;4.20;99.90
27896;DHT22;15241;48.374;10.876;2023-03-03T04:54:32;4.30;99.90
27896;DHT22;15241;48.374;10.876;2023-03-03T04:59:31;4.20;99.90
27896;DHT22;15241;48.374;10.876;2023-03-03T05:04:30;4.20;99.90
27896;DHT22;15241;48.374;10.876;2023-03-03T05:09:29;4.30;99.90
27896;DHT22;15241;48.374;10.876;2023-03-03T05:14:28;4.30;99.90
27896;DHT22;15241;48.374;10.876;2023-03-03T05:19:27;4.30;99.90
27896;DHT22;15241;48.374;10.876;2023-03-03T05:24:26;4.30;99.90
27896;DHT22;15241;48.374;10.876;2023-03-03T05:29:25;4.40;99.90
27896;DHT22;15241;48.374;10.876;2023-03-03T05:34:24;4.40;99.90
27896;DHT22;15241;48.374;10.876;2023-03-03T05:39:23;4.40;99.90
27896;DHT22;15241;48.374;10.876;2023-03-03T05:44:22;4.50;99.90
27896;DHT22;15241;48.374;10.876;2023-03-03T05:49:21;4.40;99.90
27896;DHT22;15241;48.374;10.876;2023-03-03T05:54:20;4.50;99.90
27896;DHT22;15241;48.374;10.876;2023-03-03T05:59:19;4.50;99.90
27896;DHT22;15241;48.374;10.876;2023-03-03T06:04:18;4.40;99.90
27896;DHT22;15241;48.374;10.876;2023-03-03T06:09:17;4.50;99.90
27896;DHT22;15241;48.374;10.876;2023-03-03T06:14:16;4.40;99.90
27896;DHT22;15241;48.374;10.876;2023-03-03T06:19:15;4.50;99.90
27896;DHT22;15241;48.374;10.876;2023-03-03T06:24:14;4.50;99.90
27896;DHT22;15241;48.374;10.876;2023-03-03T06:29:15;4.50;99.90
27896;DHT22;15241;48.374;10.876;2023-03-03T06:34:13;4.50;99.90
27896;DHT22;15241;48.374;10.876;2023-03-03T06:39:13;4.50;99.90
27896;DHT22;15241;48.374;10.876;2023-03-03T06:44:12;4.60;99.90
27896;DHT22;15241;48.374;10.876;2023-03-03T06:49:12;4.70;99.90
27896;DHT22;15241;48.374;10.876;2023-03-03T06:54:13;4.60;99.90
27896;DHT22;15241;48.374;10.876;2023-03-03T06:59:14;4.60;99.90
27896;DHT22;15241;48.374;10.876;2023-03-03T07:09:29;4.80;99.90
27896;DHT22;15241;48.374;10.876;2023-03-03T07:14:31;4.70;99.90
27896;DHT22;15241;48.374;10.876;2023-03-03T07:19:34;4.80;99.90
27896;DHT22;15241;48.374;10.876;2023-03-03T07:24:33;4.90;99.90
27896;DHT22;15241;48.374;10.876;2023-03-03T07:29:33;4.90;99.90
27896;DHT22;15241;48.374;10.876;2023-03-03T07:34:37;4.90;99.90
27896;DHT22;15241;48.374;10.876;2023-03-03T07:39:37;4.90;99.90
27896;DHT22;15241;48.374;10.876;2023-03-03T07:44:37;4.90;99.90
27896;DHT22;15241;48.374;10.876;2023-03-03T07:49:37;4.80;99.90
27896;DHT22;15241;48.374;10.876;2023-03-03T07:54:38;4.90;99.90
27896;DHT22;15241;48.374;10.876;2023-03-03T07:59:40;4.90;99.90
27896;DHT22;15241;48.374;10.876;2023-03-03T08:04:41;5.00;99.90
27896;DHT22;15241;48.374;10.876;2023-03-03T08:09:49;5.00;99.90
27896;DHT22;15241;48.374;10.876;2023-03-03T08:14:51;5.10;99.90
27896;DHT22;15241;48.374;10.876;2023-03-03T08:19:50;5.10;99.90
27896;DHT22;15241;48.374;10.876;2023-03-03T08:24:50;5.00;99.90
27896;DHT22;15241;48.374;10.876;2023-03-03T08:29:49;5.10;99.90
27896;DHT22;15241;48.374;10.876;2023-03-03T08:34:48;5.20;99.90
27896;DHT22;15241;48.374;10.876;2023-03-03T08:39:47;5.30;99.90
27896;DHT22;15241;48.374;10.876;2023-03-03T08:44:46;5.40;99.90
27896;DHT22;15241;48.374;10.876;2023-03-03T08:49:45;5.60;99.90
27896;DHT22;15241;48.374;10.876;2023-03-03T08:54:44;5.90;99.90
27896;DHT22;15241;48.374;10.876;2023-03-03T08:59:46;6.20;99.90
27896;DHT22;15241;48.374;10.876;2023-03-03T09:04:45;6.50;99.90
27896;DHT22;15241;48.374;10.876;2023-03-03T09:09:47;6.90;99.90
27896;DHT22;15241;48.374;10.876;2023-03-03T09:14:46;7.30;99.90
27896;DHT22;15241;48.374;10.876;2023-03-03T09:19:45;7.50;99.90
27896;DHT22;15241;48.374;10.876;2023-03-03T09:24:46;7.90;99.90
27896;DHT22;15241;48.374;10.876;2023-03-03T09:29:45;8.10;99.90
27896;DHT22;15241;48.374;10.876;2023-03-03T09:34:45;8.40;99.90
27896;DHT22;15241;48.374;10.876;2023-03-03T09:39:44;8.70;99.90
27896;DHT22;15241;48.374;10.876;2023-03-03T09:45:24;8.90;99.90
27896;DHT22;15241;48.374;10.876;2023-03-03T09:50:33;9.10;99.90
27896;DHT22;15241;48.374;10.876;2023-03-03T09:55:40;9.50;99.90
27896;DHT22;15241;48.374;10.876;2023-03-03T10:00:46;9.80;99.90
27896;DHT22;15241;48.374;10.876;2023-03-03T10:05:50;10.10;99.90
27896;DHT22;15241;48.374;10.876;2023-03-03T10:16:28;10.50;99.90
27896;DHT22;15241;48.374;10.876;2023-03-03T10:21:30;10.60;99.90
27896;DHT22;15241;48.374;10.876;2023-03-03T10:26:37;10.90;99.90
27896;DHT22;15241;48.374;10.876;2023-03-03T10:31:44;11.10;99.90
27896;DHT22;15241;48.374;10.876;2023-03-03T10:36:54;11.30;99.90
27896;DHT22;15241;48.374;10.876;2023-03-03T10:42:05;11.40;99.90
27896;DHT22;15241;48.374;10.876;2023-03-03T10:47:32;11.60;99.90
27896;DHT22;15241;48.374;10.876;2023-03-03T10:52:41;11.70;99.90
27896;DHT22;15241;48.374;10.876;2023-03-03T10:57:43;11.90;99.90
27896;DHT22;15241;48.374;10.876;2023-03-03T11:02:47;12.10;99.90
27896;DHT22;15241;48.374;10.876;2023-03-03T11:07:50;12.90;99.90
27896;DHT22;15241;48.374;10.876;2023-03-03T11:12:54;13.30;99.90
27896;DHT22;15241;48.374;10.876;2023-03-03T11:18:00;13.60;99.90
27896;DHT22;15241;48.374;10.876;2023-03-03T11:23:02;13.70;99.90
27896;DHT22;15241;48.374;10.876;2023-03-03T11:28:10;14.00;99.90
27896;DHT22;15241;48.374;10.876;2023-03-03T11:33:11;14.20;99.90
27896;DHT22;15241;48.374;10.876;2023-03-03T11:38:36;14.30;99.90
27896;DHT22;15241;48.374;10.876;2023-03-03T11:43:38;14.50;99.90
27896;DHT22;15241;48.374;10.876;2023-03-03T11:48:42;14.40;99.90
27896;DHT22;15241;48.374;10.876;2023-03-03T11:53:50;14.20;99.60
27896;DHT22;15241;48.374;10.876;2023-03-03T11:58:56;13.90;99.30
27896;DHT22;15241;48.374;10.876;2023-03-03T12:03:56;14.00;99.90
27896;DHT22;15241;48.374;10.876;2023-03-03T12:14:54;14.10;98.30
27896;DHT22;15241;48.374;10.876;2023-03-03T12:19:56;13.80;98.00
27896;DHT22;15241;48.374;10.876;2023-03-03T12:30:42;13.60;98.40
27896;DHT22;15241;48.374;10.876;2023-03-03T12:35:45;16.50;96.20
27896;DHT22;15241;48.374;10.876;2023-03-03T12:40:48;22.40;81.10
27896;DHT22;15241;48.374;10.876;2023-03-03T12:45:53;23.90;64.10
27896;DHT22;15241;48.374;10.876;2023-03-03T12:50:56;25.80;58.60
27896;DHT22;15241;48.374;10.876;2023-03-03T12:55:59;29.10;49.30
27896;DHT22;15241;48.374;10.876;2023-03-03T13:01:03;31.70;41.20
27896;DHT22;15241;48.374;10.876;2023-03-03T13:06:06;33.70;36.00
27896;DHT22;15241;48.374;10.876;2023-03-03T13:11:19;35.90;32.50
27896;DHT22;15241;48.374;10.876;2023-03-03T13:16:20;37.10;30.50
27896;DHT22;15241;48.374;10.876;2023-03-03T13:21:23;35.40;29.50
27896;DHT22;15241;48.374;10.876;2023-03-03T13:26:25;33.90;30.60
27896;DHT22;15241;48.374;10.876;2023-03-03T13:31:30;30.90;32.70
27896;DHT22;15241;48.374;10.876;2023-03-03T13:36:34;31.90;32.00
27896;DHT22;15241;48.374;10.876;2023-03-03T13:41:37;33.20;30.50
27896;DHT22;15241;48.374;10.876;2023-03-03T13:46:39;35.90;29.30
27896;DHT22;15241;48.374;10.876;2023-03-03T13:51:43;36.70;28.50
27896;DHT22;15241;48.374;10.876;2023-03-03T13:56:55;36.60;28.60
27896;DHT22;15241;48.374;10.876;2023-03-03T14:01:57;36.00;28.80
27896;DHT22;15241;48.374;10.876;2023-03-03T14:07:00;37.40;27.30
27896;DHT22;15241;48.374;10.876;2023-03-03T14:12:04;38.80;26.00
27896;DHT22;15241;48.374;10.876;2023-03-03T14:17:07;38.50;25.90
27896;DHT22;15241;48.374;10.876;2023-03-03T14:22:14;38.20;26.20
27896;DHT22;15241;48.374;10.876;2023-03-03T14:27:22;37.80;25.80
27896;DHT22;15241;48.374;10.876;2023-03-03T14:32:23;35.80;27.50
27896;DHT22;15241;48.374;10.876;2023-03-03T14:37:24;34.40;27.60
27896;DHT22;15241;48.374;10.876;2023-03-03T14:42:36;32.80;29.10
27896;DHT22;15241;48.374;10.876;2023-03-03T14:47:36;31.30;30.60
27896;DHT22;15241;48.374;10.876;2023-03-03T14:52:38;32.20;29.80
27896;DHT22;15241;48.374;10.876;2023-03-03T14:57:42;31.70;30.40
27896;DHT22;15241;48.374;10.876;2023-03-03T15:02:42;32.50;29.50
27896;DHT22;15241;48.374;10.876;2023-03-03T15:07:42;31.10;30.40
27896;DHT22;15241;48.374;10.876;2023-03-03T15:12:42;31.20;30.50
27896;DHT22;15241;48.374;10.876;2023-03-03T15:17:43;30.70;31.00
27896;DHT22;15241;48.374;10.876;2023-03-03T15:22:48;28.70;33.10
27896;DHT22;15241;48.374;10.876;2023-03-03T15:27:50;26.80;36.00
27896;DHT22;15241;48.374;10.876;2023-03-03T15:32:56;25.30;37.30
27896;DHT22;15241;48.374;10.876;2023-03-03T15:38:01;24.50;38.70
27896;DHT22;15241;48.374;10.876;2023-03-03T15:43:12;25.40;37.80
27896;DHT22;15241;48.374;10.876;2023-03-03T15:54:03;25.10;37.60
27896;DHT22;15241;48.374;10.876;2023-03-03T15:59:24;25.00;38.10
27896;DHT22;15241;48.374;10.876;2023-03-03T16:09:42;22.60;41.70
27896;DHT22;15241;48.374;10.876;2023-03-03T16:15:07;21.00;44.00
27896;DHT22;15241;48.374;10.876;2023-03-03T16:20:14;20.00;46.30
27896;DHT22;15241;48.374;10.876;2023-03-03T16:25:39;18.80;48.30
27896;DHT22;15241;48.374;10.876;2023-03-03T16:30:43;17.60;50.60
27896;DHT22;15241;48.374;10.876;2023-03-03T16:35:46;16.80;52.60
27896;DHT22;15241;48.374;10.876;2023-03-03T16:40:48;16.00;54.50
27896;DHT22;15241;48.374;10.876;2023-03-03T16:45:48;15.30;56.10
27896;DHT22;15241;48.374;10.876;2023-03-03T16:50:54;14.70;57.90
27896;DHT22;15241;48.374;10.876;2023-03-03T16:55:59;14.10;59.80
27896;DHT22;15241;48.374;10.876;2023-03-03T17:01:03;13.50;61.80
27896;DHT22;15241;48.374;10.876;2023-03-03T17:06:05;12.90;63.20
27896;DHT22;15241;48.374;10.876;2023-03-03T17:11:09;12.10;67.60
27896;DHT22;15241;48.374;10.876;2023-03-03T17:16:12;11.50;72.00
27896;DHT22;15241;48.374;10.876;2023-03-03T17:26:28;10.90;79.00
27896;DHT22;15241;48.374;10.876;2023-03-03T17:36:44;10.50;84.60
27896;DHT22;15241;48.374;10.876;2023-03-03T17:41:46;10.30;88.00
27896;DHT22;15241;48.374;10.876;2023-03-03T17:46:58;9.90;91.70
27896;DHT22;15241;48.374;10.876;2023-03-03T17:52:21;9.70;93.80
27896;DHT22;15241;48.374;10.876;2023-03-03T17:57:32;9.50;95.90
27896;DHT22;15241;48.374;10.876;2023-03-03T18:08:28;9.20;99.90
27896;DHT22;15241;48.374;10.876;2023-03-03T18:13:41;9.00;99.90
27896;DHT22;15241;48.374;10.876;2023-03-03T18:18:54;8.80;99.90
27896;DHT22;15241;48.374;10.876;2023-03-03T18:23:53;8.60;99.90
27896;DHT22;15241;48.374;10.876;2023-03-03T18:34:07;8.20;99.90
27896;DHT22;15241;48.374;10.876;2023-03-03T18:39:11;8.00;99.90
27896;DHT22;15241;48.374;10.876;2023-03-03T18:44:27;8.00;99.90
27896;DHT22;15241;48.374;10.876;2023-03-03T18:49:50;8.00;99.90
27896;DHT22;15241;48.374;10.876;2023-03-03T18:55:21;7.90;99.90
27896;DHT22;15241;48.374;10.876;2023-03-03T19:00:23;7.80;99.90
27896;DHT22;15241;48.374;10.876;2023-03-03T19:05:25;7.70;99.90
27896;DHT22;15241;48.374;10.876;2023-03-03T19:10:53;7.60;99.90
27896;DHT22;15241;48.374;10.876;2023-03-03T19:15:56;7.50;99.90
27896;DHT22;15241;48.374;10.876;2023-03-03T19:21:00;7.30;99.90
27896;DHT22;15241;48.374;10.876;2023-03-03T19:26:26;7.30;99.90
27896;DHT22;15241;48.374;10.876;2023-03-03T19:31:28;7.20;99.90
27896;DHT22;15241;48.374;10.876;2023-03-03T19:36:51;7.10;99.90
27896;DHT22;15241;48.374;10.876;2023-03-03T19:42:02;7.00;99.90
27896;DHT22;15241;48.374;10.876;2023-03-03T19:47:03;6.90;99.90
27896;DHT22;15241;48.374;10.876;2023-03-03T19:52:05;6.80;99.90
27896;DHT22;15241;48.374;10.876;2023-03-03T19:57:08;6.60;99.90
27896;DHT22;15241;48.374;10.876;2023-03-03T20:07:52;6.50;99.90
27896;DHT22;15241;48.374;10.876;2023-03-03T20:12:57;6.30;99.90
27896;DHT22;15241;48.374;10.876;2023-03-03T20:18:34;6.20;99.90
27896;DHT22;15241;48.374;10.876;2023-03-03T20:23:37;6.10;99.90
27896;DHT22;15241;48.374;10.876;2023-03-03T20:39:57;5.80;99.90
27896;DHT22;15241;48.374;10.876;2023-03-03T20:45:07;5.80;99.90
27896;DHT22;15241;48.374;10.876;2023-03-03T20:55:30;5.60;99.90
27896;DHT22;15241;48.374;10.876;2023-03-03T21:00:33;5.60;99.90
27896;DHT22;15241;48.374;10.876;2023-03-03T21:05:33;5.50;99.90
27896;DHT22;15241;48.374;10.876;2023-03-03T21:10:33;5.50;99.90
27896;DHT22;15241;48.374;10.876;2023-03-03T21:15:33;5.30;99.90
27896;DHT22;15241;48.374;10.876;2023-03-03T21:25:59;5.20;99.90
27896;DHT22;15241;48.374;10.876;2023-03-03T21:31:10;5.20;99.90
27896;DHT22;15241;48.374;10.876;2023-03-03T21:36:11;5.00;99.90
27896;DHT22;15241;48.374;10.876;2023-03-03T21:41:10;5.00;99.90
27896;DHT22;15241;48.374;10.876;2023-03-03T21:46:09;5.00;99.90
27896;DHT22;15241;48.374;10.876;2023-03-03T21:51:09;4.90;99.90
27896;DHT22;15241;48.374;10.876;2023-03-03T21:56:11;4.90;99.90
27896;DHT22;15241;48.374;10.876;2023-03-03T22:01:10;4.80;99.90
27896;DHT22;15241;48.374;10.876;2023-03-03T22:06:09;4.80;99.90
27896;DHT22;15241;48.374;10.876;2023-03-03T22:11:08;4.70;99.90
27896;DHT22;15241;48.374;10.876;2023-03-03T22:16:08;4.60;99.90
27896;DHT22;15241;48.374;10.876;2023-03-03T22:21:07;4.60;99.90
27896;DHT22;15241;48.374;10.876;2023-03-03T22:26:06;4.50;99.90
27896;DHT22;15241;48.374;10.876;2023-03-03T22:31:06;4.40;99.90
27896;DHT22;15241;48.374;10.876;2023-03-03T22:36:08;4.40;99.90
27896;DHT22;15241;48.374;10.876;2023-03-03T22:41:07;4.30;99.90
27896;DHT22;15241;48.374;10.876;2023-03-03T22:46:06;4.20;99.90
27896;DHT22;15241;48.374;10.876;2023-03-03T22:51:06;4.20;99.90
27896;DHT22;15241;48.374;10.876;2023-03-03T22:56:07;4.10;99.90
27896;DHT22;15241;48.374;10.876;2023-03-03T23:01:06;4.10;99.90
27896;DHT22;15241;48.374;10.876;2023-03-03T23:06:06;4.10;99.90
27896;DHT22;15241;48.374;10.876;2023-03-03T23:11:05;4.00;99.90
27896;DHT22;15241;48.374;10.876;2023-03-03T23:16:06;4.00;99.90
27896;DHT22;15241;48.374;10.876;2023-03-03T23:21:05;4.00;99.90
27896;DHT22;15241;48.374;10.876;2023-03-03T23:26:05;3.90;99.90
27896;DHT22;15241;48.374;10.876;2023-03-03T23:31:04;3.80;99.90
27896;DHT22;15241;48.374;10.876;2023-03-03T23:36:04;3.80;99.90
27896;DHT22;15241;48.374;10.876;2023-03-03T23:41:04;3.70;99.90
27896;DHT22;15241;48.374;10.876;2023-03-03T23:46:03;3.60;99.90
27896;DHT22;15241;48.374;10.876;2023-03-03T23:51:02;3.60;99.90
27896;DHT22;15241;48.374;10.876;2023-03-03T23:56:01;3.60;99.90
